createdAt,value
2019-03-24T00:00:07.993Z,2.75
2019-03-24T00:02:36.741Z,3.70
2019-03-24T00:05:06.407Z,3.37
2019-03-24T00:07:35.019Z,2.10
2019-03-24T00:10:04.583Z,2.77
2019-03-24T00:12:33.213Z,3.30
2019-03-24T00:15:01.886Z,3.10
2019-03-24T00:17:30.603Z,4.57
2019-03-24T00:19:59.258Z,2.77
2019-03-24T00:22:28.004Z,3.20
2019-03-24T00:24:56.702Z,3.50
2019-03-24T00:27:25.492Z,2.93
2019-03-24T00:29:57.240Z,3.07
2019-03-24T00:32:25.934Z,3.53
2019-03-24T00:34:54.627Z,3.33
2019-03-24T00:37:23.276Z,3.67
2019-03-24T00:39:52.016Z,3.70
2019-03-24T00:42:20.827Z,3.83
2019-03-24T00:44:49.433Z,3.57
2019-03-24T00:47:18.075Z,4.23
2019-03-24T00:49:46.762Z,4.30
2019-03-24T00:52:15.508Z,4.83
2019-03-24T00:54:44.222Z,4.77
2019-03-24T00:57:12.969Z,4.20
2019-03-24T00:59:41.702Z,4.43
2019-03-24T01:02:10.527Z,3.73
2019-03-24T01:04:39.235Z,3.37
2019-03-24T01:07:08.016Z,3.73
2019-03-24T01:09:36.767Z,4.67
2019-03-24T01:12:06.736Z,5.17
2019-03-24T01:14:35.457Z,3.60
2019-03-24T01:17:04.947Z,4.33
2019-03-24T01:19:33.607Z,4.83
2019-03-24T01:22:02.369Z,4.83
2019-03-24T01:24:31.057Z,4.17
2019-03-24T01:26:59.832Z,3.60
2019-03-24T01:29:28.528Z,4.60
2019-03-24T01:31:57.150Z,4.70
2019-03-24T01:34:25.939Z,4.03
2019-03-24T01:36:54.559Z,5.40
2019-03-24T01:39:23.306Z,4.57
2019-03-24T01:41:51.983Z,5.20
2019-03-24T01:44:20.744Z,4.13
2019-03-24T01:46:49.634Z,4.57
2019-03-24T01:49:18.310Z,4.70
2019-03-24T01:51:46.929Z,4.90
2019-03-24T01:54:15.605Z,3.80
2019-03-24T01:56:44.291Z,4.80
2019-03-24T01:59:13.076Z,4.45
2019-03-24T02:01:41.700Z,5.28
2019-03-24T02:04:10.455Z,4.97
2019-03-24T02:06:39.145Z,5.33
2019-03-24T02:09:08.736Z,5.40
2019-03-24T02:11:37.400Z,4.10
2019-03-24T02:14:06.271Z,4.50
2019-03-24T02:16:34.966Z,5.30
2019-03-24T02:19:03.698Z,5.00
2019-03-24T02:21:38.911Z,5.80
2019-03-24T02:24:10.207Z,5.03
2019-03-24T02:26:38.974Z,5.43
2019-03-24T02:29:07.711Z,5.43
2019-03-24T02:31:36.400Z,4.10
2019-03-24T02:34:05.260Z,6.30
2019-03-24T02:36:33.949Z,5.15
2019-03-24T02:39:02.711Z,5.33
2019-03-24T02:41:31.649Z,5.07
2019-03-24T02:44:00.404Z,4.20
2019-03-24T02:46:29.063Z,5.27
2019-03-24T02:48:57.879Z,4.17
2019-03-24T02:51:26.647Z,4.73
2019-03-24T02:53:55.509Z,4.70
2019-03-24T02:56:24.188Z,5.17
2019-03-24T02:58:52.918Z,4.30
2019-03-24T03:01:21.674Z,11.03
2019-03-24T03:03:50.394Z,4.83
2019-03-24T03:06:19.143Z,3.70
2019-03-24T03:08:47.751Z,4.03
2019-03-24T03:11:17.011Z,5.40
2019-03-24T03:13:45.834Z,4.80
2019-03-24T03:16:14.569Z,5.80
2019-03-24T03:18:43.285Z,7.40
2019-03-24T03:21:12.191Z,4.28
2019-03-24T03:23:41.059Z,10.93
2019-03-24T03:26:09.727Z,5.35
2019-03-24T03:28:38.456Z,6.70
2019-03-24T03:31:07.236Z,6.83
2019-03-24T03:33:35.891Z,3.93
2019-03-24T03:36:05.170Z,5.47
2019-03-24T03:38:33.877Z,5.10
2019-03-24T03:41:02.577Z,4.60
2019-03-24T03:43:31.548Z,4.87
2019-03-24T03:46:00.162Z,5.03
2019-03-24T03:48:28.877Z,4.20
2019-03-24T03:50:57.713Z,4.00
2019-03-24T03:53:26.450Z,5.33
2019-03-24T03:55:55.168Z,4.73
2019-03-24T03:58:23.871Z,4.57
2019-03-24T04:00:52.688Z,6.20
2019-03-24T04:03:21.351Z,5.50
2019-03-24T04:05:50.015Z,5.40
2019-03-24T04:08:18.700Z,6.73
2019-03-24T04:10:47.410Z,5.30
2019-03-24T04:13:16.176Z,7.33
2019-03-24T04:15:45.026Z,7.17
2019-03-24T04:18:13.727Z,5.97
2019-03-24T04:20:42.543Z,7.17
2019-03-24T04:23:11.331Z,8.20
2019-03-24T04:25:40.065Z,6.10
2019-03-24T04:28:09.469Z,5.70
2019-03-24T04:30:38.261Z,4.60
2019-03-24T04:33:07.026Z,5.00
2019-03-24T04:35:35.724Z,5.03
2019-03-24T04:38:05.461Z,5.95
2019-03-24T04:40:35.068Z,5.07
2019-03-24T04:43:03.834Z,4.50
2019-03-24T04:45:32.521Z,5.30
2019-03-24T04:48:01.185Z,4.92
2019-03-24T04:50:29.865Z,4.53
2019-03-24T04:52:58.511Z,5.93
2019-03-24T04:55:27.273Z,6.00
2019-03-24T04:57:55.896Z,5.50
2019-03-24T05:00:40.959Z,7.20
2019-03-24T05:03:09.677Z,7.33
2019-03-24T05:05:40.065Z,6.07
2019-03-24T05:08:10.839Z,6.13
2019-03-24T05:10:39.554Z,7.97
2019-03-24T05:13:08.288Z,5.20
2019-03-24T05:15:37.021Z,5.67
2019-03-24T05:18:05.714Z,7.37
2019-03-24T05:20:34.478Z,5.77
2019-03-24T05:23:03.119Z,5.87
2019-03-24T05:25:31.898Z,4.67
2019-03-24T05:28:00.650Z,5.90
2019-03-24T05:30:29.407Z,5.97
2019-03-24T05:32:58.084Z,5.33
2019-03-24T05:35:26.811Z,6.70
2019-03-24T05:37:55.421Z,6.70
2019-03-24T05:40:24.004Z,6.07
2019-03-24T05:42:52.592Z,6.20
2019-03-24T05:45:21.379Z,7.08
2019-03-24T05:47:50.058Z,6.70
2019-03-24T05:50:18.767Z,7.80
2019-03-24T05:52:47.495Z,7.37
2019-03-24T05:55:16.203Z,7.22
2019-03-24T05:57:45.005Z,7.03
2019-03-24T06:00:14.624Z,7.33
2019-03-24T06:02:43.399Z,7.47
2019-03-24T06:05:12.333Z,7.00
2019-03-24T06:07:40.998Z,7.73
2019-03-24T06:10:10.033Z,7.28
2019-03-24T06:12:38.756Z,5.43
2019-03-24T06:15:10.468Z,6.37
2019-03-24T06:17:47.400Z,4.90
2019-03-24T06:20:10.930Z,4.20
2019-03-24T06:22:39.655Z,4.20
2019-03-24T06:25:08.517Z,4.13
2019-03-24T06:27:37.246Z,4.70
2019-03-24T06:30:08.447Z,4.80
2019-03-24T06:32:37.157Z,4.60
2019-03-24T06:35:09.661Z,4.03
2019-03-24T06:37:38.589Z,3.97
2019-03-24T06:40:07.418Z,4.60
2019-03-24T06:42:36.091Z,4.70
2019-03-24T06:45:07.089Z,4.28
2019-03-24T06:47:35.926Z,5.37
2019-03-24T06:50:08.010Z,5.10
2019-03-24T06:52:36.726Z,5.20
2019-03-24T06:55:16.274Z,5.33
2019-03-24T06:57:45.099Z,7.40
2019-03-24T07:00:15.296Z,7.10
2019-03-24T07:02:44.233Z,8.23
2019-03-24T07:05:13.067Z,6.97
2019-03-24T07:07:41.721Z,6.10
2019-03-24T07:10:11.307Z,5.80
2019-03-24T07:12:40.096Z,5.80
2019-03-24T07:15:10.402Z,5.07
2019-03-24T07:17:39.134Z,3.40
2019-03-24T07:20:09.294Z,4.93
2019-03-24T07:22:38.056Z,7.63
2019-03-24T07:25:24.951Z,4.50
2019-03-24T07:27:55.320Z,5.13
2019-03-24T07:30:24.092Z,3.27
2019-03-24T07:32:52.904Z,4.67
2019-03-24T07:35:21.737Z,3.52
2019-03-24T07:37:50.542Z,3.90
2019-03-24T07:40:19.415Z,4.17
2019-03-24T07:42:48.331Z,4.20
2019-03-24T07:45:17.181Z,4.60
2019-03-24T07:47:48.984Z,4.33
2019-03-24T07:50:18.978Z,4.58
2019-03-24T07:52:47.752Z,4.28
2019-03-24T07:55:16.450Z,5.30
2019-03-24T07:57:45.183Z,4.77
2019-03-24T08:00:15.952Z,5.50
2019-03-24T08:02:53.196Z,5.00
2019-03-24T08:05:21.963Z,4.83
2019-03-24T08:07:54.587Z,4.50
2019-03-24T08:10:23.945Z,6.10
2019-03-24T08:12:52.940Z,7.07
2019-03-24T08:15:38.887Z,6.20
2019-03-24T08:18:07.803Z,4.67
2019-03-24T08:20:37.106Z,5.87
2019-03-24T08:23:11.544Z,6.13
2019-03-24T08:25:40.750Z,6.40
2019-03-24T08:28:09.922Z,6.13
2019-03-24T08:30:39.401Z,6.30
2019-03-24T08:33:08.136Z,5.87
2019-03-24T08:35:37.063Z,5.30
2019-03-24T08:38:18.464Z,5.60
2019-03-24T08:40:48.065Z,6.10
2019-03-24T08:43:16.935Z,6.83
2019-03-24T08:45:45.663Z,4.67
2019-03-24T08:48:27.592Z,5.30
2019-03-24T08:50:56.351Z,5.27
2019-03-24T08:53:25.726Z,5.87
2019-03-24T08:55:54.577Z,7.13
2019-03-24T08:58:23.211Z,5.83
2019-03-24T09:00:51.965Z,5.50
2019-03-24T09:03:20.963Z,8.00
2019-03-24T09:05:49.948Z,5.27
2019-03-24T09:08:18.611Z,6.90
2019-03-24T09:10:47.262Z,5.63
2019-03-24T09:13:16.110Z,5.92
2019-03-24T09:15:44.912Z,5.90
2019-03-24T09:18:13.675Z,5.65
2019-03-24T09:20:43.510Z,5.30
2019-03-24T09:23:12.171Z,5.73
2019-03-24T09:25:40.921Z,6.47
2019-03-24T09:28:12.970Z,6.87
2019-03-24T09:30:41.727Z,5.77
2019-03-24T09:33:10.458Z,7.30
2019-03-24T09:35:39.404Z,5.13
2019-03-24T09:38:08.761Z,5.50
2019-03-24T09:40:37.665Z,6.53
2019-03-24T09:43:07.341Z,4.90
2019-03-24T09:45:36.172Z,5.63
2019-03-24T09:48:07.539Z,4.70
2019-03-24T09:50:36.360Z,4.70
2019-03-24T09:53:05.281Z,5.20
2019-03-24T09:55:37.266Z,4.90
2019-03-24T09:58:06.043Z,4.70
2019-03-24T10:00:35.489Z,5.10
2019-03-24T10:03:04.360Z,4.77
2019-03-24T10:05:33.008Z,5.17
2019-03-24T10:08:04.913Z,4.60
2019-03-24T10:10:33.620Z,4.57
2019-03-24T10:13:02.601Z,4.83
2019-03-24T10:15:31.295Z,4.33
2019-03-24T10:18:00.344Z,4.20
2019-03-24T10:20:29.154Z,4.83
2019-03-24T10:22:57.985Z,5.30
2019-03-24T10:25:26.746Z,4.67
2019-03-24T10:27:55.565Z,4.10
2019-03-24T10:30:24.289Z,4.58
2019-03-24T10:32:52.986Z,5.20
2019-03-24T10:35:21.648Z,4.50
2019-03-24T10:37:50.542Z,5.37
2019-03-24T10:40:28.091Z,4.53
2019-03-24T10:42:50.764Z,3.17
2019-03-24T10:45:23.232Z,4.00
2019-03-24T10:47:55.724Z,3.73
2019-03-24T10:50:25.655Z,3.30
2019-03-24T10:52:56.444Z,4.57
2019-03-24T10:55:25.209Z,4.30
2019-03-24T10:57:53.982Z,3.20
2019-03-24T11:00:29.113Z,2.70
2019-03-24T11:02:58.810Z,3.53
2019-03-24T11:05:28.723Z,2.40
2019-03-24T11:07:58.205Z,4.70
2019-03-24T11:10:27.778Z,2.70
2019-03-24T11:12:57.598Z,3.57
2019-03-24T11:15:27.339Z,3.87
2019-03-24T11:17:57.067Z,3.58
2019-03-24T11:20:26.763Z,4.90
2019-03-24T11:23:01.100Z,4.47
2019-03-24T11:25:43.027Z,4.00
2019-03-24T11:28:13.842Z,4.08
2019-03-24T11:30:43.509Z,3.57
2019-03-24T11:33:13.132Z,3.73
2019-03-24T11:35:42.338Z,3.27
2019-03-24T11:38:11.682Z,3.23
2019-03-24T11:40:40.692Z,2.83
2019-03-24T11:43:09.517Z,3.03
2019-03-24T11:45:38.908Z,2.90
2019-03-24T11:48:07.825Z,2.30
2019-03-24T11:50:36.945Z,3.47
2019-03-24T11:53:05.825Z,2.57
2019-03-24T11:55:36.880Z,2.60
2019-03-24T11:58:06.416Z,3.43
2019-03-24T12:00:43.532Z,3.12
2019-03-24T12:03:12.519Z,2.63
2019-03-24T12:05:41.162Z,3.70
2019-03-24T12:08:10.223Z,3.60
2019-03-24T12:10:38.933Z,4.23
2019-03-24T12:13:14.156Z,2.63
2019-03-24T12:15:43.531Z,3.03
2019-03-24T12:18:12.855Z,3.60
2019-03-24T12:20:41.812Z,2.93
2019-03-24T12:23:10.525Z,3.20
2019-03-24T12:25:39.262Z,3.30
2019-03-24T12:28:09.206Z,3.10
2019-03-24T12:30:40.256Z,3.40
2019-03-24T12:33:11.136Z,2.73
2019-03-24T12:35:39.837Z,3.50
2019-03-24T12:38:09.411Z,3.10
2019-03-24T12:40:38.167Z,3.10
2019-03-24T12:43:06.967Z,3.60
2019-03-24T12:45:36.378Z,2.80
2019-03-24T12:48:05.599Z,2.83
2019-03-24T12:50:35.182Z,2.47
2019-03-24T12:53:04.110Z,2.83
2019-03-24T12:55:32.815Z,2.50
2019-03-24T12:58:01.594Z,3.80
2019-03-24T13:00:34.766Z,3.37
2019-03-24T13:03:03.639Z,2.80
2019-03-24T13:05:32.419Z,2.60
2019-03-24T13:08:12.566Z,2.70
2019-03-24T13:10:48.242Z,2.30
2019-03-24T13:13:17.046Z,2.50
2019-03-24T13:15:54.258Z,2.13
2019-03-24T13:18:23.467Z,2.20
2019-03-24T13:20:52.150Z,1.63
2019-03-24T13:23:20.867Z,2.00
2019-03-24T13:25:50.638Z,2.60
2019-03-24T13:28:19.655Z,2.70
2019-03-24T13:30:48.388Z,2.40
2019-03-24T13:33:17.226Z,2.20
2019-03-24T13:35:46.153Z,1.90
2019-03-24T13:38:15.539Z,2.60
2019-03-24T13:40:44.153Z,2.43
2019-03-24T13:43:12.920Z,3.22
2019-03-24T13:45:41.674Z,3.37
2019-03-24T13:48:10.301Z,2.43
2019-03-24T13:50:39.010Z,2.47
2019-03-24T13:53:07.667Z,2.40
2019-03-24T13:55:36.373Z,3.10
2019-03-24T13:58:05.792Z,2.13
2019-03-24T14:00:34.542Z,2.77
2019-03-24T14:03:03.336Z,2.30
2019-03-24T14:05:32.150Z,2.87
2019-03-24T14:08:00.795Z,2.70
2019-03-24T14:10:29.555Z,2.30
2019-03-24T14:12:58.207Z,2.07
2019-03-24T14:15:26.887Z,2.17
2019-03-24T14:17:55.787Z,2.17
2019-03-24T14:20:24.660Z,2.10
2019-03-24T14:22:55.307Z,2.17
2019-03-24T14:25:23.835Z,2.27
2019-03-24T14:27:52.562Z,2.77
2019-03-24T14:30:24.245Z,2.72
2019-03-24T14:32:53.069Z,2.40
2019-03-24T14:35:21.841Z,2.95
2019-03-24T14:37:50.677Z,4.10
2019-03-24T14:40:19.435Z,2.75
2019-03-24T14:42:48.236Z,2.50
2019-03-24T14:45:16.988Z,1.77
2019-03-24T14:47:45.714Z,2.40
2019-03-24T14:50:14.578Z,1.92
2019-03-24T14:52:43.302Z,2.60
2019-03-24T14:55:12.022Z,1.95
2019-03-24T14:57:40.894Z,2.12
2019-03-24T15:00:10.886Z,1.90
2019-03-24T15:02:40.857Z,1.40
2019-03-24T15:05:10.077Z,1.30
2019-03-24T15:07:38.848Z,1.47
2019-03-24T15:10:08.162Z,2.10
2019-03-24T15:12:36.927Z,1.80
2019-03-24T15:15:07.424Z,1.70
2019-03-24T15:17:36.245Z,1.97
2019-03-24T15:20:07.328Z,2.27
2019-03-24T15:22:36.161Z,2.70
2019-03-24T15:25:08.347Z,2.20
2019-03-24T15:27:37.112Z,1.33
2019-03-24T15:30:08.544Z,2.27
2019-03-24T15:32:37.296Z,1.50
2019-03-24T15:35:07.435Z,1.20
2019-03-24T15:37:36.292Z,1.20
2019-03-24T15:40:07.762Z,1.60
2019-03-24T15:42:36.524Z,2.80
2019-03-24T15:45:07.850Z,2.03
2019-03-24T15:47:36.556Z,1.60
2019-03-24T15:50:09.066Z,1.37
2019-03-24T15:52:37.874Z,2.97
2019-03-24T15:55:07.717Z,1.90
2019-03-24T15:57:36.410Z,1.40
2019-03-24T16:00:07.814Z,1.80
2019-03-24T16:02:36.589Z,1.97
2019-03-24T16:05:06.815Z,2.10
2019-03-24T16:07:35.506Z,0.80
2019-03-24T16:10:08.152Z,1.27
2019-03-24T16:12:37.186Z,2.30
2019-03-24T16:15:08.213Z,1.20
2019-03-24T16:17:36.956Z,0.90
2019-03-24T16:20:07.279Z,1.03
2019-03-24T16:22:35.971Z,0.97
2019-03-24T16:25:07.287Z,1.00
2019-03-24T16:27:36.099Z,3.60
2019-03-24T16:30:08.425Z,0.95
2019-03-24T16:32:37.247Z,0.87
2019-03-24T16:35:07.768Z,1.50
2019-03-24T16:37:36.404Z,1.40
2019-03-24T16:40:08.306Z,1.12
2019-03-24T16:42:37.597Z,1.40
2019-03-24T16:45:06.587Z,1.57
2019-03-24T16:47:35.472Z,1.87
2019-03-24T16:50:09.450Z,1.30
2019-03-24T16:52:38.140Z,1.47
2019-03-24T16:55:07.668Z,1.37
2019-03-24T16:57:36.400Z,1.30
2019-03-24T17:00:08.400Z,1.67
2019-03-24T17:02:37.161Z,1.50
2019-03-24T17:05:07.356Z,1.85
2019-03-24T17:07:36.327Z,0.90
2019-03-24T17:10:08.052Z,1.70
2019-03-24T17:12:36.879Z,1.53
2019-03-24T17:15:08.416Z,1.40
2019-03-24T17:17:37.649Z,1.37
2019-03-24T17:20:08.417Z,2.57
2019-03-24T17:22:41.426Z,2.00
2019-03-24T17:25:11.355Z,1.30
2019-03-24T17:27:41.056Z,1.30
2019-03-24T17:30:13.310Z,2.00
2019-03-24T17:32:42.119Z,1.97
2019-03-24T17:35:11.908Z,1.10
2019-03-24T17:37:41.454Z,1.80
2019-03-24T17:40:14.832Z,1.25
2019-03-24T17:42:43.533Z,1.33
2019-03-24T17:45:14.147Z,1.43
2019-03-24T17:47:42.774Z,2.20
2019-03-24T17:50:13.895Z,1.37
2019-03-24T17:52:43.614Z,1.40
2019-03-24T17:55:12.620Z,1.85
2019-03-24T17:57:41.992Z,1.42
2019-03-24T18:00:15.057Z,2.10
2019-03-24T18:02:44.151Z,1.80
2019-03-24T18:05:16.395Z,1.70
2019-03-24T18:07:45.101Z,1.77
2019-03-24T18:10:15.358Z,1.83
2019-03-24T18:12:44.669Z,1.80
2019-03-24T18:15:13.402Z,1.52
2019-03-24T18:17:42.180Z,1.10
2019-03-24T18:20:13.894Z,1.33
2019-03-24T18:22:42.640Z,2.27
2019-03-24T18:25:11.493Z,1.30
2019-03-24T18:27:40.100Z,1.80
2019-03-24T18:30:11.332Z,1.82
2019-03-24T18:32:40.042Z,2.08
2019-03-24T18:35:11.266Z,1.30
2019-03-24T18:37:41.399Z,1.40
2019-03-24T18:40:12.581Z,2.12
2019-03-24T18:42:41.388Z,1.90
2019-03-24T18:45:12.310Z,2.40
2019-03-24T18:47:45.512Z,2.00
2019-03-24T18:50:15.235Z,1.87
2019-03-24T18:52:43.773Z,2.62
2019-03-24T18:55:12.705Z,1.70
2019-03-24T18:57:42.103Z,2.10
2019-03-24T19:00:13.729Z,2.02
2019-03-24T19:02:42.385Z,1.90
2019-03-24T19:05:12.166Z,1.20
2019-03-24T19:07:40.807Z,2.17
2019-03-24T19:10:11.625Z,2.00
2019-03-24T19:12:40.431Z,2.30
2019-03-24T19:15:13.372Z,2.27
2019-03-24T19:17:42.334Z,1.90
2019-03-24T19:20:19.558Z,1.83
2019-03-24T19:22:49.863Z,1.80
2019-03-24T19:25:18.700Z,2.67
2019-03-24T19:27:48.229Z,2.80
2019-03-24T19:30:19.702Z,3.07
2019-03-24T19:32:48.347Z,3.00
2019-03-24T19:35:17.781Z,3.53
2019-03-24T19:37:47.649Z,2.63
2019-03-24T19:40:27.605Z,2.12
2019-03-24T19:42:56.503Z,3.83
2019-03-24T19:45:25.817Z,2.50
2019-03-24T19:48:04.259Z,2.13
2019-03-24T19:50:34.694Z,2.13
2019-03-24T19:53:03.590Z,2.20
2019-03-24T19:55:41.080Z,2.53
2019-03-24T19:58:10.007Z,2.05
2019-03-24T20:00:38.890Z,1.72
2019-03-24T20:03:07.683Z,2.27
2019-03-24T20:05:36.364Z,2.50
2019-03-24T20:08:05.184Z,3.10
2019-03-24T20:10:50.628Z,3.80
2019-03-24T20:13:21.700Z,2.60
2019-03-24T20:15:50.564Z,2.03
2019-03-24T20:18:19.199Z,2.27
2019-03-24T20:20:47.952Z,2.03
2019-03-24T20:23:16.819Z,2.92
2019-03-24T20:25:45.599Z,3.20
2019-03-24T20:28:14.218Z,2.80
2019-03-24T20:30:42.908Z,2.57
2019-03-24T20:33:11.607Z,1.93
2019-03-24T20:35:40.280Z,3.10
2019-03-24T20:38:09.091Z,2.57
2019-03-24T20:40:37.689Z,2.30
2019-03-24T20:43:06.356Z,1.83
2019-03-24T20:45:35.091Z,3.12
2019-03-24T20:48:03.903Z,3.03
2019-03-24T20:50:32.670Z,2.70
2019-03-24T20:53:05.573Z,3.30
2019-03-24T20:55:34.338Z,2.50
2019-03-24T20:58:02.273Z,2.43
2019-03-24T21:00:36.377Z,3.92
2019-03-24T21:03:07.170Z,4.50
2019-03-24T21:05:36.011Z,2.70
2019-03-24T21:08:05.110Z,3.40
2019-03-24T21:10:34.102Z,3.53
2019-03-24T21:13:03.163Z,2.87
2019-03-24T21:15:32.673Z,3.33
2019-03-24T21:18:02.839Z,3.70
2019-03-24T21:20:32.438Z,3.10
2019-03-24T21:23:01.159Z,3.73
2019-03-24T21:25:32.336Z,3.30
2019-03-24T21:28:00.968Z,3.13
2019-03-24T21:30:37.857Z,3.23
2019-03-24T21:33:07.378Z,2.90
2019-03-24T21:35:48.294Z,2.10
2019-03-24T21:38:18.608Z,2.37
2019-03-24T21:40:48.199Z,2.30
2019-03-24T21:43:19.946Z,2.47
2019-03-24T21:45:48.687Z,3.30
2019-03-24T21:48:17.487Z,1.33
2019-03-24T21:50:46.227Z,2.40
2019-03-24T21:53:15.444Z,2.08
2019-03-24T21:55:45.576Z,1.67
2019-03-24T21:58:17.983Z,2.08
2019-03-24T22:00:46.683Z,1.22
2019-03-24T22:03:15.344Z,2.60
2019-03-24T22:05:44.404Z,0.87
2019-03-24T22:08:13.130Z,2.37
2019-03-24T22:10:41.771Z,1.63
2019-03-24T22:13:10.520Z,2.02
2019-03-24T22:15:39.155Z,1.37
2019-03-24T22:18:09.334Z,2.07
2019-03-24T22:20:48.455Z,1.70
2019-03-24T22:23:08.440Z,2.40
2019-03-24T22:25:37.192Z,2.20
2019-03-24T22:28:05.914Z,3.80
2019-03-24T22:30:34.766Z,2.33
2019-03-24T22:33:03.469Z,2.40
2019-03-24T22:35:32.177Z,1.95
2019-03-24T22:38:00.960Z,3.53
2019-03-24T22:40:29.667Z,2.73
2019-03-24T22:42:58.322Z,1.80
2019-03-24T22:45:26.963Z,2.67
2019-03-24T22:47:55.666Z,2.67
2019-03-24T22:50:24.426Z,1.93
2019-03-24T22:52:53.040Z,2.90
2019-03-24T22:55:21.683Z,3.20
2019-03-24T22:57:50.411Z,3.30
2019-03-24T23:00:20.960Z,2.20
2019-03-24T23:02:49.670Z,3.10
2019-03-24T23:05:18.398Z,1.83
2019-03-24T23:07:47.210Z,2.50
2019-03-24T23:10:15.926Z,2.60
2019-03-24T23:12:44.617Z,2.90
2019-03-24T23:15:13.471Z,2.22
2019-03-24T23:17:42.260Z,2.77
2019-03-24T23:20:10.901Z,2.55
2019-03-24T23:22:39.543Z,2.20
2019-03-24T23:25:08.322Z,1.73
2019-03-24T23:27:37.054Z,2.37
2019-03-24T23:30:07.841Z,1.83
2019-03-24T23:32:36.580Z,1.27
2019-03-24T23:35:06.895Z,1.80
2019-03-24T23:37:35.712Z,1.43
2019-03-24T23:40:08.704Z,2.22
2019-03-24T23:42:37.444Z,2.20
2019-03-24T23:45:07.941Z,1.07
2019-03-24T23:47:36.607Z,1.47
2019-03-24T23:50:06.709Z,1.80
2019-03-24T23:52:35.389Z,2.83
2019-03-24T23:55:04.753Z,1.63
2019-03-24T23:57:33.497Z,1.80
